createdAt,value
2019-01-06T00:01:58.228Z,48.93
2019-01-06T00:04:34.764Z,52.57
2019-01-06T00:07:04.969Z,53.13
2019-01-06T00:09:35.245Z,51.47
2019-01-06T00:12:21.901Z,50.07
2019-01-06T00:15:04.195Z,51.53
2019-01-06T00:17:43.195Z,52.00
2019-01-06T00:20:29.969Z,55.63
2019-01-06T00:23:15.753Z,59.40
2019-01-06T00:25:46.037Z,56.47
2019-01-06T00:28:32.813Z,48.90
2019-01-06T00:31:03.013Z,54.50
2019-01-06T00:33:39.561Z,55.50
2019-01-06T00:36:18.584Z,51.23
2019-01-06T00:39:03.735Z,49.67
2019-01-06T00:41:36.697Z,47.97
2019-01-06T00:44:19.349Z,49.83
2019-01-06T00:46:52.606Z,44.13
2019-01-06T00:49:39.166Z,35.43
2019-01-06T00:52:24.644Z,34.70
2019-01-06T00:55:03.970Z,31.97
2019-01-06T00:57:34.176Z,34.07
2019-01-06T01:00:13.567Z,32.90
2019-01-06T01:02:43.827Z,35.97
2019-01-06T01:05:17.186Z,30.37
2019-01-06T01:07:59.849Z,29.63
2019-01-06T01:10:30.056Z,31.10
2019-01-06T01:13:12.640Z,31.30
2019-01-06T01:15:51.707Z,31.17
2019-01-06T01:18:24.929Z,29.93
2019-01-06T01:21:03.909Z,26.67
2019-01-06T01:23:46.515Z,30.77
2019-01-06T01:26:33.237Z,26.03
2019-01-06T01:29:20.258Z,27.13
2019-01-06T01:32:05.584Z,27.63
2019-01-06T01:34:36.172Z,24.73
2019-01-06T01:37:09.087Z,22.20
2019-01-06T01:39:57.807Z,19.57
2019-01-06T01:42:28.003Z,20.27
2019-01-06T01:44:58.143Z,26.70
2019-01-06T01:47:43.534Z,23.00
2019-01-06T01:50:28.875Z,27.33
2019-01-06T01:53:02.497Z,29.40
2019-01-06T01:55:38.649Z,24.43
2019-01-06T01:58:11.886Z,25.07
2019-01-06T02:00:54.066Z,25.70
2019-01-06T02:03:27.296Z,26.70
2019-01-06T02:06:00.206Z,25.70
2019-01-06T02:08:30.417Z,27.83
2019-01-06T02:11:12.696Z,25.13
2019-01-06T02:13:42.916Z,26.47
2019-01-06T02:16:13.040Z,29.00
2019-01-06T02:18:49.209Z,27.03
2019-01-06T02:21:35.298Z,27.23
2019-01-06T02:24:11.490Z,29.17
2019-01-06T02:26:41.777Z,34.37
2019-01-06T02:29:14.727Z,30.00
2019-01-06T02:31:50.630Z,33.27
2019-01-06T02:34:36.997Z,32.13
2019-01-06T02:37:07.609Z,31.83
2019-01-06T02:39:37.874Z,31.77
2019-01-06T02:42:24.385Z,28.37
2019-01-06T02:45:06.912Z,33.43
2019-01-06T02:47:46.228Z,32.53
2019-01-06T02:50:21.906Z,30.73
2019-01-06T02:52:58.130Z,33.60
2019-01-06T02:55:34.300Z,29.40
2019-01-06T02:58:04.969Z,31.40
2019-01-06T03:00:51.743Z,34.90
2019-01-06T03:03:21.981Z,37.60
2019-01-06T03:05:52.187Z,32.83
2019-01-06T03:08:34.622Z,39.23
2019-01-06T03:11:10.579Z,40.97
2019-01-06T03:13:56.473Z,37.00
2019-01-06T03:16:29.389Z,38.70
2019-01-06T03:19:15.939Z,42.00
2019-01-06T03:21:48.916Z,40.90
2019-01-06T03:24:37.614Z,50.60
2019-01-06T03:27:07.819Z,47.90
2019-01-06T03:29:40.636Z,52.00
2019-01-06T03:32:10.942Z,50.50
2019-01-06T03:34:57.584Z,49.30
2019-01-06T03:37:27.840Z,50.30
2019-01-06T03:40:14.192Z,57.10
2019-01-06T03:42:54.097Z,58.97
2019-01-06T03:45:33.663Z,49.23
2019-01-06T03:48:03.885Z,47.57
2019-01-06T03:50:50.502Z,38.37
2019-01-06T03:53:23.545Z,33.30
2019-01-06T03:56:02.546Z,38.60
2019-01-06T03:58:38.870Z,40.67
2019-01-06T04:01:09.138Z,34.60
2019-01-06T04:03:39.405Z,33.33
2019-01-06T04:06:13.110Z,35.33
2019-01-06T04:08:59.510Z,33.87
2019-01-06T04:11:41.716Z,30.13
2019-01-06T04:14:17.852Z,31.00
2019-01-06T04:17:06.586Z,33.53
2019-01-06T04:19:52.820Z,29.17
2019-01-06T04:22:39.195Z,28.77
2019-01-06T04:25:12.158Z,31.03
2019-01-06T04:27:57.218Z,28.70
2019-01-06T04:30:36.503Z,30.10
2019-01-06T04:33:24.977Z,35.23
2019-01-06T04:35:55.261Z,30.00
2019-01-06T04:38:43.550Z,29.67
2019-01-06T04:41:16.821Z,30.07
2019-01-06T04:44:02.126Z,33.10
2019-01-06T04:46:48.757Z,34.90
2019-01-06T04:49:22.173Z,29.93
2019-01-06T04:52:02.479Z,36.57
2019-01-06T04:54:42.304Z,39.03
2019-01-06T04:57:15.686Z,37.33
2019-01-06T05:00:02.620Z,33.57
2019-01-06T05:02:35.888Z,33.60
2019-01-06T05:05:08.806Z,32.30
2019-01-06T05:07:48.157Z,36.57
2019-01-06T05:10:24.671Z,37.60
2019-01-06T05:12:54.871Z,31.97
2019-01-06T05:15:30.801Z,41.00
2019-01-06T05:18:07.276Z,34.60
2019-01-06T05:20:40.617Z,35.87
2019-01-06T05:23:16.882Z,41.07
2019-01-06T05:26:03.611Z,36.53
2019-01-06T05:28:33.806Z,33.97
2019-01-06T05:31:04.085Z,33.37
2019-01-06T05:33:37.573Z,38.20
2019-01-06T05:36:10.440Z,35.30
2019-01-06T05:38:43.651Z,38.20
2019-01-06T05:41:22.927Z,44.50
2019-01-06T05:44:09.833Z,43.37
2019-01-06T05:46:56.130Z,37.03
2019-01-06T05:49:35.689Z,40.07
2019-01-06T05:52:12.076Z,39.10
2019-01-06T05:54:45.559Z,43.80
2019-01-06T05:57:24.689Z,45.30
2019-01-06T06:00:11.484Z,42.60
2019-01-06T06:02:44.630Z,50.30
2019-01-06T06:05:20.627Z,42.90
2019-01-06T06:08:05.910Z,46.80
2019-01-06T06:10:51.568Z,43.83
2019-01-06T06:13:38.118Z,31.90
2019-01-06T06:16:25.209Z,40.83
2019-01-06T06:19:07.515Z,34.77
2019-01-06T06:21:54.336Z,32.77
2019-01-06T06:24:39.805Z,24.97
2019-01-06T06:27:21.758Z,25.77
2019-01-06T06:29:58.170Z,14.40
2019-01-06T06:32:40.137Z,12.20
2019-01-06T06:35:13.190Z,5.70
2019-01-06T06:37:46.848Z,7.80
2019-01-06T06:40:20.059Z,6.73
2019-01-06T06:42:56.624Z,11.83
2019-01-06T06:45:38.842Z,13.30
2019-01-06T06:48:11.938Z,6.13
2019-01-06T06:50:53.795Z,5.73
2019-01-06T06:53:24.035Z,6.10
2019-01-06T06:56:10.812Z,3.90
2019-01-06T06:58:57.656Z,8.13
2019-01-06T07:01:39.420Z,9.73
2019-01-06T07:04:12.571Z,7.13
2019-01-06T07:06:45.582Z,5.23
2019-01-06T07:09:19.013Z,3.83
2019-01-06T07:11:49.135Z,4.03
2019-01-06T07:14:19.331Z,4.97
2019-01-06T07:17:26.756Z,4.77
2019-01-06T07:19:56.958Z,7.53
2019-01-06T07:22:27.212Z,4.07
2019-01-06T07:25:03.232Z,8.10
2019-01-06T07:27:49.304Z,7.73
2019-01-06T07:30:25.817Z,6.20
2019-01-06T07:32:56.081Z,6.23
2019-01-06T07:35:31.944Z,11.90
2019-01-06T07:38:02.079Z,5.47
2019-01-06T07:40:32.324Z,5.53
2019-01-06T07:43:02.614Z,4.97
2019-01-06T07:45:48.297Z,6.83
2019-01-06T07:48:21.273Z,7.63
2019-01-06T07:50:57.501Z,6.30
2019-01-06T07:53:33.877Z,7.50
2019-01-06T07:56:04.059Z,4.57
2019-01-06T07:58:50.490Z,3.33
2019-01-06T08:01:32.741Z,2.27
2019-01-06T08:04:02.906Z,3.97
2019-01-06T08:06:33.086Z,6.17
2019-01-06T08:09:03.345Z,7.80
2019-01-06T08:11:48.635Z,7.50
2019-01-06T08:14:18.766Z,5.13
2019-01-06T08:16:58.166Z,8.17
2019-01-06T08:19:34.395Z,11.23
2019-01-06T08:22:10.848Z,5.93
2019-01-06T08:24:43.687Z,7.53
2019-01-06T08:27:13.890Z,11.67
2019-01-06T08:29:55.933Z,14.23
2019-01-06T08:32:26.123Z,10.93
2019-01-06T08:35:12.675Z,14.43
2019-01-06T08:37:42.950Z,13.90
2019-01-06T08:40:13.141Z,12.23
2019-01-06T08:42:43.494Z,10.57
2019-01-06T08:45:29.698Z,45.10
2019-01-06T08:48:16.078Z,38.30
2019-01-06T08:50:48.905Z,27.00
2019-01-06T08:53:19.071Z,12.77
2019-01-06T08:55:55.066Z,7.63
2019-01-06T08:58:34.231Z,10.50
2019-01-06T09:01:04.343Z,9.70
2019-01-06T09:03:50.989Z,13.90
2019-01-06T09:06:39.174Z,13.37
2019-01-06T09:09:27.926Z,9.30
2019-01-06T09:12:07.096Z,8.83
2019-01-06T09:14:53.195Z,7.90
2019-01-06T09:17:38.176Z,9.03
2019-01-06T09:20:10.829Z,18.50
2019-01-06T09:22:43.777Z,15.43
2019-01-06T09:25:23.112Z,9.83
2019-01-06T09:28:05.331Z,13.37
2019-01-06T09:30:38.845Z,11.93
2019-01-06T09:33:15.059Z,15.57
2019-01-06T09:36:01.693Z,14.10
2019-01-06T09:38:34.591Z,11.27
2019-01-06T09:41:13.980Z,12.23
2019-01-06T09:43:59.333Z,13.40
2019-01-06T09:46:35.560Z,30.63
2019-01-06T09:49:11.934Z,20.77
2019-01-06T09:51:57.345Z,19.87
2019-01-06T09:54:36.557Z,8.80
2019-01-06T09:57:15.792Z,26.67
2019-01-06T10:00:03.829Z,13.83
2019-01-06T10:02:46.221Z,10.43
2019-01-06T10:05:25.355Z,18.60
2019-01-06T10:08:11.859Z,14.70
2019-01-06T10:11:00.213Z,15.37
2019-01-06T10:13:30.756Z,16.53
2019-01-06T10:16:16.999Z,13.30
2019-01-06T10:18:53.133Z,16.37
2019-01-06T10:21:35.367Z,20.10
2019-01-06T10:24:05.593Z,17.37
2019-01-06T10:26:54.011Z,20.17
2019-01-06T10:29:33.094Z,14.93
2019-01-06T10:32:03.222Z,16.63
2019-01-06T10:34:33.414Z,17.23
2019-01-06T10:37:12.778Z,18.20
2019-01-06T10:39:57.928Z,15.97
2019-01-06T10:42:28.397Z,13.23
2019-01-06T10:45:14.438Z,15.37
2019-01-06T10:48:00.861Z,14.43
2019-01-06T10:50:47.220Z,18.60
2019-01-06T10:53:33.413Z,18.30
2019-01-06T10:56:06.388Z,14.77
2019-01-06T10:58:36.733Z,9.83
2019-01-06T11:01:25.374Z,12.03
2019-01-06T11:04:01.356Z,10.53
2019-01-06T11:06:40.575Z,11.47
2019-01-06T11:09:27.008Z,16.90
2019-01-06T11:12:00.331Z,20.73
2019-01-06T11:14:33.550Z,18.13
2019-01-06T11:17:20.201Z,17.50
2019-01-06T11:19:56.359Z,18.33
2019-01-06T11:22:26.991Z,15.77
2019-01-06T11:25:03.174Z,17.83
2019-01-06T11:27:42.900Z,16.53
2019-01-06T11:30:28.931Z,13.87
2019-01-06T11:33:05.219Z,11.80
2019-01-06T11:35:38.194Z,11.00
2019-01-06T11:38:17.482Z,18.77
2019-01-06T11:40:59.828Z,26.63
2019-01-06T11:43:45.675Z,21.23
2019-01-06T11:46:16.171Z,24.07
2019-01-06T11:48:55.335Z,30.70
2019-01-06T11:51:34.733Z,28.70
2019-01-06T11:54:10.804Z,30.60
2019-01-06T11:56:57.591Z,30.47
2019-01-06T11:59:27.859Z,21.93
2019-01-06T12:02:16.568Z,23.57
2019-01-06T12:05:02.665Z,19.13
2019-01-06T12:07:47.582Z,21.60
2019-01-06T12:10:17.782Z,16.77
2019-01-06T12:12:57.083Z,12.47
2019-01-06T12:15:42.093Z,209.90
2019-01-06T12:18:15.312Z,63.40
2019-01-06T12:20:51.513Z,20.37
2019-01-06T12:23:30.900Z,19.13
2019-01-06T12:26:17.264Z,14.10
2019-01-06T12:28:47.566Z,15.27
2019-01-06T12:31:33.927Z,19.93
2019-01-06T12:34:07.380Z,20.50
2019-01-06T12:36:55.483Z,21.57
2019-01-06T12:39:41.666Z,20.43
2019-01-06T12:42:21.274Z,17.53
2019-01-06T12:44:53.941Z,15.97
2019-01-06T12:47:26.782Z,13.17
2019-01-06T12:49:57.048Z,16.37
2019-01-06T12:52:30.087Z,21.20
2019-01-06T12:55:05.802Z,18.13
2019-01-06T12:57:52.099Z,16.40
2019-01-06T13:00:38.337Z,18.90
2019-01-06T13:03:17.711Z,25.10
2019-01-06T13:05:47.977Z,16.77
2019-01-06T13:08:36.325Z,17.53
2019-01-06T13:11:22.762Z,20.97
2019-01-06T13:14:11.213Z,33.63
2019-01-06T13:16:53.402Z,27.23
2019-01-06T13:19:29.591Z,28.40
2019-01-06T13:22:11.645Z,30.43
2019-01-06T13:24:50.972Z,23.50
2019-01-06T13:27:35.948Z,17.77
2019-01-06T13:30:13.571Z,16.33
2019-01-06T13:32:52.360Z,16.23
2019-01-06T13:35:38.536Z,14.97
2019-01-06T13:38:24.781Z,18.60
2019-01-06T13:41:11.204Z,24.57
2019-01-06T13:43:57.385Z,17.17
2019-01-06T13:46:36.505Z,97.27
2019-01-06T13:49:15.816Z,20.60
2019-01-06T13:51:48.761Z,23.23
2019-01-06T13:54:35.137Z,24.70
2019-01-06T13:57:20.599Z,23.40
2019-01-06T13:59:54.489Z,25.67
2019-01-06T14:02:30.869Z,32.50
2019-01-06T14:05:07.182Z,14.30
2019-01-06T14:07:40.152Z,17.10
2019-01-06T14:10:22.200Z,15.87
2019-01-06T14:13:10.978Z,14.63
2019-01-06T14:15:50.339Z,15.17
2019-01-06T14:18:35.376Z,15.23
2019-01-06T14:21:21.615Z,12.93
2019-01-06T14:24:07.686Z,13.53
2019-01-06T14:26:40.494Z,14.83
2019-01-06T14:29:25.783Z,17.47
2019-01-06T14:32:11.174Z,16.90
2019-01-06T14:34:57.562Z,20.00
2019-01-06T14:37:39.423Z,17.57
2019-01-06T14:40:27.807Z,15.37
2019-01-06T14:43:16.037Z,19.73
2019-01-06T14:46:00.967Z,24.10
2019-01-06T14:48:46.124Z,21.07
2019-01-06T14:51:19.423Z,16.90
2019-01-06T14:54:04.732Z,18.30
2019-01-06T14:56:43.766Z,19.33
2019-01-06T14:59:19.962Z,13.57
2019-01-06T15:01:56.252Z,13.90
2019-01-06T15:04:32.515Z,11.53
2019-01-06T15:07:03.112Z,12.73
2019-01-06T15:09:45.491Z,16.73
2019-01-06T15:12:28.159Z,16.20
2019-01-06T15:15:14.231Z,16.10
2019-01-06T15:17:50.263Z,18.07
2019-01-06T15:20:26.650Z,18.20
2019-01-06T15:23:13.473Z,18.83
2019-01-06T15:25:52.700Z,20.33
2019-01-06T15:28:25.809Z,16.83
2019-01-06T15:30:59.023Z,15.07
2019-01-06T15:33:41.099Z,18.43
2019-01-06T15:36:25.812Z,17.43
2019-01-06T15:39:11.168Z,22.37
2019-01-06T15:41:44.450Z,23.67
2019-01-06T15:44:31.077Z,24.07
2019-01-06T15:47:03.896Z,23.30
2019-01-06T15:49:46.136Z,27.43
2019-01-06T15:52:16.413Z,26.17
2019-01-06T15:54:52.627Z,26.73
2019-01-06T15:57:38.691Z,30.53
2019-01-06T16:00:16.097Z,34.60
2019-01-06T16:03:01.476Z,42.80
2019-01-06T16:05:43.899Z,47.23
2019-01-06T16:08:14.018Z,54.90
2019-01-06T16:11:00.653Z,55.67
2019-01-06T16:13:30.918Z,40.67
2019-01-06T16:16:07.028Z,30.33
2019-01-06T16:18:43.294Z,24.37
2019-01-06T16:21:31.430Z,18.00
2019-01-06T16:24:04.673Z,19.67
2019-01-06T16:26:43.714Z,19.50
2019-01-06T16:29:22.958Z,22.90
2019-01-06T16:32:01.974Z,34.90
2019-01-06T16:34:35.066Z,35.33
2019-01-06T16:37:21.284Z,38.17
2019-01-06T16:40:03.554Z,25.83
2019-01-06T16:42:39.875Z,23.17
2019-01-06T16:45:26.337Z,20.80
2019-01-06T16:48:12.710Z,17.17
2019-01-06T16:50:54.825Z,19.20
2019-01-06T16:53:25.085Z,25.20
2019-01-06T16:56:13.234Z,26.87
2019-01-06T22:38:08.519Z,8.03
2019-01-06T22:40:38.738Z,8.07
2019-01-06T22:43:14.321Z,8.30
2019-01-06T22:45:44.923Z,9.20
2019-01-06T22:48:32.959Z,10.57
2019-01-06T22:51:09.541Z,9.07
2019-01-06T22:53:56.126Z,8.73
2019-01-06T22:56:43.031Z,8.17
2019-01-06T22:59:18.982Z,7.23
2019-01-06T23:02:05.836Z,8.03
2019-01-06T23:04:39.090Z,12.93
2019-01-06T23:07:12.395Z,7.20
2019-01-06T23:09:42.652Z,8.70
2019-01-06T23:12:29.055Z,5.43
2019-01-06T23:15:11.612Z,7.03
2019-01-06T23:17:57.011Z,6.40
2019-01-06T23:20:35.856Z,5.80
2019-01-06T23:23:22.748Z,7.70
2019-01-06T23:25:55.703Z,7.57
2019-01-06T23:28:31.366Z,9.43
2019-01-06T23:31:01.488Z,9.60
2019-01-06T23:33:31.755Z,11.53
2019-01-06T23:36:07.834Z,8.70
2019-01-06T23:38:54.208Z,7.60
2019-01-06T23:41:24.721Z,10.63
2019-01-06T23:43:54.979Z,8.67
2019-01-06T23:46:28.244Z,13.23
2019-01-06T23:48:58.761Z,12.50
2019-01-06T23:51:41.200Z,12.47
2019-01-06T23:54:14.538Z,14.30
2019-01-06T23:56:44.800Z,11.63
2019-01-06T23:59:14.940Z,12.67
